sensor_id;sensor_type;location;lat;lon;timestamp;P1;durP1;ratioP1;P2;durP2;ratioP2
29196;SDS011;62796;42.654;23.316;2023-07-24T00:00:59;14.60;;;9.80;;
29196;SDS011;62796;42.654;23.316;2023-07-24T00:03:24;12.30;;;9.20;;
29196;SDS011;62796;42.654;23.316;2023-07-24T00:05:50;14.50;;;9.70;;
29196;SDS011;62796;42.654;23.316;2023-07-24T00:08:15;13.77;;;9.32;;
29196;SDS011;62796;42.654;23.316;2023-07-24T00:10:40;14.32;;;9.55;;
29196;SDS011;62796;42.654;23.316;2023-07-24T00:13:06;14.70;;;9.88;;
29196;SDS011;62796;42.654;23.316;2023-07-24T00:15:32;13.70;;;9.82;;
29196;SDS011;62796;42.654;23.316;2023-07-24T00:17:57;14.65;;;10.68;;
29196;SDS011;62796;42.654;23.316;2023-07-24T00:20:22;17.17;;;10.48;;
29196;SDS011;62796;42.654;23.316;2023-07-24T00:22:49;16.02;;;9.93;;
29196;SDS011;62796;42.654;23.316;2023-07-24T00:25:14;14.18;;;9.80;;
29196;SDS011;62796;42.654;23.316;2023-07-24T00:27:40;16.50;;;10.13;;
29196;SDS011;62796;42.654;23.316;2023-07-24T00:30:05;15.93;;;10.20;;
29196;SDS011;62796;42.654;23.316;2023-07-24T00:32:31;18.55;;;10.20;;
29196;SDS011;62796;42.654;23.316;2023-07-24T00:34:57;14.93;;;10.57;;
29196;SDS011;62796;42.654;23.316;2023-07-24T00:37:22;13.57;;;9.73;;
29196;SDS011;62796;42.654;23.316;2023-07-24T00:39:49;12.80;;;9.38;;
29196;SDS011;62796;42.654;23.316;2023-07-24T00:42:14;15.63;;;9.90;;
29196;SDS011;62796;42.654;23.316;2023-07-24T00:44:39;13.55;;;9.52;;
29196;SDS011;62796;42.654;23.316;2023-07-24T00:47:05;12.65;;;9.30;;
29196;SDS011;62796;42.654;23.316;2023-07-24T00:49:30;14.45;;;9.70;;
29196;SDS011;62796;42.654;23.316;2023-07-24T00:51:56;15.35;;;10.63;;
29196;SDS011;62796;42.654;23.316;2023-07-24T00:54:21;15.25;;;10.25;;
29196;SDS011;62796;42.654;23.316;2023-07-24T00:56:47;13.45;;;9.75;;
29196;SDS011;62796;42.654;23.316;2023-07-24T00:59:14;16.33;;;9.90;;
29196;SDS011;62796;42.654;23.316;2023-07-24T01:01:40;15.27;;;10.02;;
29196;SDS011;62796;42.654;23.316;2023-07-24T01:04:07;15.57;;;10.18;;
29196;SDS011;62796;42.654;23.316;2023-07-24T01:06:33;18.02;;;10.25;;
29196;SDS011;62796;42.654;23.316;2023-07-24T01:08:59;13.65;;;9.95;;
29196;SDS011;62796;42.654;23.316;2023-07-24T01:11:25;16.63;;;10.50;;
29196;SDS011;62796;42.654;23.316;2023-07-24T01:13:53;13.10;;;10.27;;
29196;SDS011;62796;42.654;23.316;2023-07-24T01:16:30;16.95;;;10.68;;
29196;SDS011;62796;42.654;23.316;2023-07-24T01:19:01;14.90;;;10.23;;
29196;SDS011;62796;42.654;23.316;2023-07-24T01:21:38;16.63;;;10.75;;
29196;SDS011;62796;42.654;23.316;2023-07-24T01:24:24;15.15;;;10.80;;
29196;SDS011;62796;42.654;23.316;2023-07-24T01:26:58;13.85;;;10.65;;
29196;SDS011;62796;42.654;23.316;2023-07-24T01:29:23;13.95;;;10.57;;
29196;SDS011;62796;42.654;23.316;2023-07-24T01:31:49;15.35;;;10.65;;
29196;SDS011;62796;42.654;23.316;2023-07-24T01:34:15;13.98;;;10.32;;
29196;SDS011;62796;42.654;23.316;2023-07-24T01:36:40;15.25;;;10.57;;
29196;SDS011;62796;42.654;23.316;2023-07-24T01:39:06;13.98;;;10.68;;
29196;SDS011;62796;42.654;23.316;2023-07-24T01:41:32;14.15;;;10.35;;
29196;SDS011;62796;42.654;23.316;2023-07-24T01:43:58;15.93;;;10.95;;
29196;SDS011;62796;42.654;23.316;2023-07-24T01:46:24;14.10;;;9.82;;
29196;SDS011;62796;42.654;23.316;2023-07-24T01:48:50;14.40;;;10.35;;
29196;SDS011;62796;42.654;23.316;2023-07-24T01:51:17;13.27;;;9.95;;
29196;SDS011;62796;42.654;23.316;2023-07-24T01:53:42;17.17;;;10.95;;
29196;SDS011;62796;42.654;23.316;2023-07-24T01:56:08;15.90;;;11.32;;
29196;SDS011;62796;42.654;23.316;2023-07-24T01:58:33;15.13;;;11.00;;
29196;SDS011;62796;42.654;23.316;2023-07-24T02:00:58;17.95;;;11.35;;
29196;SDS011;62796;42.654;23.316;2023-07-24T02:03:24;15.38;;;10.75;;
29196;SDS011;62796;42.654;23.316;2023-07-24T02:05:50;16.08;;;11.20;;
29196;SDS011;62796;42.654;23.316;2023-07-24T02:08:16;16.98;;;10.73;;
29196;SDS011;62796;42.654;23.316;2023-07-24T02:10:42;16.90;;;11.45;;
29196;SDS011;62796;42.654;23.316;2023-07-24T02:13:07;14.52;;;10.98;;
29196;SDS011;62796;42.654;23.316;2023-07-24T02:15:32;14.38;;;11.68;;
29196;SDS011;62796;42.654;23.316;2023-07-24T02:17:58;16.00;;;10.60;;
29196;SDS011;62796;42.654;23.316;2023-07-24T02:20:23;16.80;;;11.05;;
29196;SDS011;62796;42.654;23.316;2023-07-24T02:22:49;14.85;;;10.32;;
29196;SDS011;62796;42.654;23.316;2023-07-24T02:25:14;16.00;;;10.68;;
29196;SDS011;62796;42.654;23.316;2023-07-24T02:27:40;17.17;;;11.68;;
29196;SDS011;62796;42.654;23.316;2023-07-24T02:30:05;21.00;;;12.13;;
29196;SDS011;62796;42.654;23.316;2023-07-24T02:32:31;17.15;;;10.90;;
29196;SDS011;62796;42.654;23.316;2023-07-24T02:34:57;18.67;;;11.15;;
29196;SDS011;62796;42.654;23.316;2023-07-24T02:37:22;14.65;;;11.02;;
29196;SDS011;62796;42.654;23.316;2023-07-24T02:39:48;20.55;;;11.80;;
29196;SDS011;62796;42.654;23.316;2023-07-24T02:42:13;17.45;;;11.20;;
29196;SDS011;62796;42.654;23.316;2023-07-24T02:44:39;16.60;;;11.32;;
29196;SDS011;62796;42.654;23.316;2023-07-24T02:47:04;20.38;;;11.68;;
29196;SDS011;62796;42.654;23.316;2023-07-24T02:49:30;19.00;;;11.50;;
29196;SDS011;62796;42.654;23.316;2023-07-24T02:51:55;20.40;;;12.57;;
29196;SDS011;62796;42.654;23.316;2023-07-24T02:54:21;23.33;;;12.55;;
29196;SDS011;62796;42.654;23.316;2023-07-24T02:56:46;20.73;;;12.88;;
29196;SDS011;62796;42.654;23.316;2023-07-24T02:59:11;20.33;;;13.10;;
29196;SDS011;62796;42.654;23.316;2023-07-24T03:01:37;35.38;;;23.63;;
29196;SDS011;62796;42.654;23.316;2023-07-24T03:04:02;24.17;;;15.52;;
29196;SDS011;62796;42.654;23.316;2023-07-24T03:06:30;21.42;;;13.30;;
29196;SDS011;62796;42.654;23.316;2023-07-24T03:08:55;21.33;;;14.10;;
29196;SDS011;62796;42.654;23.316;2023-07-24T03:11:21;21.15;;;13.48;;
29196;SDS011;62796;42.654;23.316;2023-07-24T03:13:46;21.48;;;13.88;;
29196;SDS011;62796;42.654;23.316;2023-07-24T03:16:11;22.30;;;14.77;;
29196;SDS011;62796;42.654;23.316;2023-07-24T03:18:37;26.25;;;14.18;;
29196;SDS011;62796;42.654;23.316;2023-07-24T03:21:02;22.63;;;13.45;;
29196;SDS011;62796;42.654;23.316;2023-07-24T03:23:28;24.67;;;14.27;;
29196;SDS011;62796;42.654;23.316;2023-07-24T03:25:54;26.00;;;14.88;;
29196;SDS011;62796;42.654;23.316;2023-07-24T03:28:19;29.30;;;14.88;;
29196;SDS011;62796;42.654;23.316;2023-07-24T03:30:44;25.55;;;14.68;;
29196;SDS011;62796;42.654;23.316;2023-07-24T03:33:10;23.48;;;14.18;;
29196;SDS011;62796;42.654;23.316;2023-07-24T03:35:37;21.02;;;13.60;;
29196;SDS011;62796;42.654;23.316;2023-07-24T03:38:03;18.98;;;12.70;;
29196;SDS011;62796;42.654;23.316;2023-07-24T03:40:28;23.95;;;13.57;;
29196;SDS011;62796;42.654;23.316;2023-07-24T03:42:53;28.40;;;13.75;;
29196;SDS011;62796;42.654;23.316;2023-07-24T03:45:19;22.92;;;14.50;;
29196;SDS011;62796;42.654;23.316;2023-07-24T03:47:44;21.85;;;13.32;;
29196;SDS011;62796;42.654;23.316;2023-07-24T03:50:09;21.95;;;13.65;;
29196;SDS011;62796;42.654;23.316;2023-07-24T03:52:35;24.05;;;14.18;;
29196;SDS011;62796;42.654;23.316;2023-07-24T03:55:01;23.30;;;13.50;;
29196;SDS011;62796;42.654;23.316;2023-07-24T03:57:26;21.92;;;13.45;;
29196;SDS011;62796;42.654;23.316;2023-07-24T03:59:51;21.33;;;14.40;;
29196;SDS011;62796;42.654;23.316;2023-07-24T04:02:17;22.70;;;14.50;;
29196;SDS011;62796;42.654;23.316;2023-07-24T04:04:42;22.85;;;13.68;;
29196;SDS011;62796;42.654;23.316;2023-07-24T04:07:08;21.55;;;13.75;;
29196;SDS011;62796;42.654;23.316;2023-07-24T04:09:33;20.45;;;13.77;;
29196;SDS011;62796;42.654;23.316;2023-07-24T04:11:58;22.45;;;13.32;;
29196;SDS011;62796;42.654;23.316;2023-07-24T04:14:27;18.52;;;12.65;;
29196;SDS011;62796;42.654;23.316;2023-07-24T04:16:54;20.98;;;13.60;;
29196;SDS011;62796;42.654;23.316;2023-07-24T04:19:20;21.83;;;13.52;;
29196;SDS011;62796;42.654;23.316;2023-07-24T04:21:45;22.30;;;13.45;;
29196;SDS011;62796;42.654;23.316;2023-07-24T04:24:11;20.50;;;14.45;;
29196;SDS011;62796;42.654;23.316;2023-07-24T04:26:36;22.58;;;13.65;;
29196;SDS011;62796;42.654;23.316;2023-07-24T04:29:02;22.02;;;14.60;;
29196;SDS011;62796;42.654;23.316;2023-07-24T04:31:27;21.42;;;13.82;;
29196;SDS011;62796;42.654;23.316;2023-07-24T04:33:52;20.70;;;13.60;;
29196;SDS011;62796;42.654;23.316;2023-07-24T04:36:18;25.55;;;13.85;;
29196;SDS011;62796;42.654;23.316;2023-07-24T04:38:43;24.27;;;14.38;;
29196;SDS011;62796;42.654;23.316;2023-07-24T04:41:11;27.98;;;16.15;;
29196;SDS011;62796;42.654;23.316;2023-07-24T04:43:36;28.40;;;16.08;;
29196;SDS011;62796;42.654;23.316;2023-07-24T04:46:02;34.38;;;19.33;;
29196;SDS011;62796;42.654;23.316;2023-07-24T04:48:27;27.73;;;16.88;;
29196;SDS011;62796;42.654;23.316;2023-07-24T04:50:56;27.50;;;16.23;;
29196;SDS011;62796;42.654;23.316;2023-07-24T04:53:22;27.27;;;15.23;;
29196;SDS011;62796;42.654;23.316;2023-07-24T04:55:47;25.25;;;14.23;;
29196;SDS011;62796;42.654;23.316;2023-07-24T04:58:13;23.88;;;14.60;;
29196;SDS011;62796;42.654;23.316;2023-07-24T05:00:38;24.55;;;14.27;;
29196;SDS011;62796;42.654;23.316;2023-07-24T05:03:04;25.38;;;14.55;;
29196;SDS011;62796;42.654;23.316;2023-07-24T05:05:30;30.10;;;14.43;;
29196;SDS011;62796;42.654;23.316;2023-07-24T05:07:56;25.95;;;15.27;;
29196;SDS011;62796;42.654;23.316;2023-07-24T05:10:22;21.60;;;13.40;;
29196;SDS011;62796;42.654;23.316;2023-07-24T05:12:47;24.98;;;15.40;;
29196;SDS011;62796;42.654;23.316;2023-07-24T05:15:12;26.58;;;14.68;;
29196;SDS011;62796;42.654;23.316;2023-07-24T05:17:41;28.80;;;16.00;;
29196;SDS011;62796;42.654;23.316;2023-07-24T05:20:07;29.73;;;15.35;;
29196;SDS011;62796;42.654;23.316;2023-07-24T05:22:33;21.17;;;14.90;;
29196;SDS011;62796;42.654;23.316;2023-07-24T05:24:58;24.77;;;15.35;;
29196;SDS011;62796;42.654;23.316;2023-07-24T05:27:24;26.08;;;14.52;;
29196;SDS011;62796;42.654;23.316;2023-07-24T05:29:49;26.38;;;14.25;;
29196;SDS011;62796;42.654;23.316;2023-07-24T05:32:14;21.40;;;13.95;;
29196;SDS011;62796;42.654;23.316;2023-07-24T05:34:40;21.67;;;13.65;;
29196;SDS011;62796;42.654;23.316;2023-07-24T05:37:05;23.15;;;13.38;;
29196;SDS011;62796;42.654;23.316;2023-07-24T05:39:31;24.75;;;15.02;;
29196;SDS011;62796;42.654;23.316;2023-07-24T05:41:56;22.63;;;14.18;;
29196;SDS011;62796;42.654;23.316;2023-07-24T05:44:21;21.60;;;13.75;;
29196;SDS011;62796;42.654;23.316;2023-07-24T05:46:47;22.42;;;14.15;;
29196;SDS011;62796;42.654;23.316;2023-07-24T05:49:12;24.33;;;13.95;;
29196;SDS011;62796;42.654;23.316;2023-07-24T05:51:37;24.80;;;14.38;;
29196;SDS011;62796;42.654;23.316;2023-07-24T05:54:03;21.40;;;14.23;;
29196;SDS011;62796;42.654;23.316;2023-07-24T05:56:28;21.83;;;14.07;;
29196;SDS011;62796;42.654;23.316;2023-07-24T05:58:54;23.98;;;15.00;;
29196;SDS011;62796;42.654;23.316;2023-07-24T06:01:19;25.25;;;15.13;;
29196;SDS011;62796;42.654;23.316;2023-07-24T06:03:44;20.73;;;14.05;;
29196;SDS011;62796;42.654;23.316;2023-07-24T06:06:10;29.00;;;14.05;;
29196;SDS011;62796;42.654;23.316;2023-07-24T06:08:35;26.40;;;14.60;;
29196;SDS011;62796;42.654;23.316;2023-07-24T06:11:00;26.02;;;14.65;;
29196;SDS011;62796;42.654;23.316;2023-07-24T06:13:26;25.13;;;15.27;;
29196;SDS011;62796;42.654;23.316;2023-07-24T06:15:51;29.33;;;15.40;;
29196;SDS011;62796;42.654;23.316;2023-07-24T06:18:17;26.42;;;14.18;;
29196;SDS011;62796;42.654;23.316;2023-07-24T06:20:43;26.85;;;13.80;;
29196;SDS011;62796;42.654;23.316;2023-07-24T06:23:08;25.88;;;14.25;;
29196;SDS011;62796;42.654;23.316;2023-07-24T06:25:34;24.25;;;13.93;;
29196;SDS011;62796;42.654;23.316;2023-07-24T06:27:59;28.00;;;14.27;;
29196;SDS011;62796;42.654;23.316;2023-07-24T06:30:25;23.83;;;14.35;;
29196;SDS011;62796;42.654;23.316;2023-07-24T06:32:50;22.50;;;13.85;;
29196;SDS011;62796;42.654;23.316;2023-07-24T06:35:16;22.38;;;13.93;;
29196;SDS011;62796;42.654;23.316;2023-07-24T06:37:41;20.35;;;13.35;;
29196;SDS011;62796;42.654;23.316;2023-07-24T06:40:07;21.58;;;13.73;;
29196;SDS011;62796;42.654;23.316;2023-07-24T06:42:33;18.63;;;12.27;;
29196;SDS011;62796;42.654;23.316;2023-07-24T06:44:58;19.70;;;12.70;;
29196;SDS011;62796;42.654;23.316;2023-07-24T06:47:24;18.45;;;12.60;;
29196;SDS011;62796;42.654;23.316;2023-07-24T06:49:50;19.25;;;12.50;;
29196;SDS011;62796;42.654;23.316;2023-07-24T06:52:15;15.70;;;12.00;;
29196;SDS011;62796;42.654;23.316;2023-07-24T06:54:41;20.42;;;12.15;;
29196;SDS011;62796;42.654;23.316;2023-07-24T06:57:06;17.38;;;12.50;;
29196;SDS011;62796;42.654;23.316;2023-07-24T06:59:32;18.48;;;11.80;;
29196;SDS011;62796;42.654;23.316;2023-07-24T07:01:58;18.95;;;11.90;;
29196;SDS011;62796;42.654;23.316;2023-07-24T07:04:23;17.00;;;11.68;;
29196;SDS011;62796;42.654;23.316;2023-07-24T07:06:48;18.95;;;11.73;;
29196;SDS011;62796;42.654;23.316;2023-07-24T07:09:14;18.60;;;12.05;;
29196;SDS011;62796;42.654;23.316;2023-07-24T07:11:39;15.15;;;11.38;;
29196;SDS011;62796;42.654;23.316;2023-07-24T07:14:05;18.52;;;11.70;;
29196;SDS011;62796;42.654;23.316;2023-07-24T07:16:33;16.48;;;11.43;;
29196;SDS011;62796;42.654;23.316;2023-07-24T07:18:59;16.95;;;11.60;;
29196;SDS011;62796;42.654;23.316;2023-07-24T07:21:24;17.25;;;12.25;;
29196;SDS011;62796;42.654;23.316;2023-07-24T07:23:50;18.05;;;11.13;;
29196;SDS011;62796;42.654;23.316;2023-07-24T07:26:15;19.00;;;11.40;;
29196;SDS011;62796;42.654;23.316;2023-07-24T07:28:40;18.85;;;11.65;;
29196;SDS011;62796;42.654;23.316;2023-07-24T07:31:06;19.55;;;11.70;;
29196;SDS011;62796;42.654;23.316;2023-07-24T07:33:31;19.35;;;11.55;;
29196;SDS011;62796;42.654;23.316;2023-07-24T07:35:57;17.13;;;11.60;;
29196;SDS011;62796;42.654;23.316;2023-07-24T07:38:22;20.40;;;11.85;;
29196;SDS011;62796;42.654;23.316;2023-07-24T07:40:48;18.60;;;11.57;;
29196;SDS011;62796;42.654;23.316;2023-07-24T07:43:16;14.48;;;10.90;;
29196;SDS011;62796;42.654;23.316;2023-07-24T07:45:41;19.48;;;11.27;;
29196;SDS011;62796;42.654;23.316;2023-07-24T07:48:07;16.20;;;11.02;;
29196;SDS011;62796;42.654;23.316;2023-07-24T07:50:32;17.83;;;11.57;;
29196;SDS011;62796;42.654;23.316;2023-07-24T07:52:57;17.98;;;11.18;;
29196;SDS011;62796;42.654;23.316;2023-07-24T07:55:23;18.30;;;12.68;;
29196;SDS011;62796;42.654;23.316;2023-07-24T07:57:48;16.67;;;12.02;;
29196;SDS011;62796;42.654;23.316;2023-07-24T08:00:14;15.65;;;11.60;;
29196;SDS011;62796;42.654;23.316;2023-07-24T08:02:39;18.02;;;11.27;;
29196;SDS011;62796;42.654;23.316;2023-07-24T08:05:08;15.93;;;11.20;;
29196;SDS011;62796;42.654;23.316;2023-07-24T08:07:35;17.42;;;11.43;;
29196;SDS011;62796;42.654;23.316;2023-07-24T08:10:01;16.33;;;11.18;;
29196;SDS011;62796;42.654;23.316;2023-07-24T08:12:27;18.70;;;11.32;;
29196;SDS011;62796;42.654;23.316;2023-07-24T08:14:52;19.70;;;11.75;;
29196;SDS011;62796;42.654;23.316;2023-07-24T08:17:18;18.27;;;11.40;;
29196;SDS011;62796;42.654;23.316;2023-07-24T08:19:43;16.80;;;12.00;;
29196;SDS011;62796;42.654;23.316;2023-07-24T08:22:08;17.60;;;11.57;;
29196;SDS011;62796;42.654;23.316;2023-07-24T08:24:34;21.23;;;12.25;;
29196;SDS011;62796;42.654;23.316;2023-07-24T08:27:00;23.48;;;12.55;;
29196;SDS011;62796;42.654;23.316;2023-07-24T08:29:26;18.80;;;12.25;;
29196;SDS011;62796;42.654;23.316;2023-07-24T08:31:51;18.88;;;12.02;;
29196;SDS011;62796;42.654;23.316;2023-07-24T08:34:17;19.48;;;12.15;;
29196;SDS011;62796;42.654;23.316;2023-07-24T08:36:42;19.92;;;11.52;;
29196;SDS011;62796;42.654;23.316;2023-07-24T08:39:08;17.50;;;12.07;;
29196;SDS011;62796;42.654;23.316;2023-07-24T08:41:33;21.20;;;12.48;;
29196;SDS011;62796;42.654;23.316;2023-07-24T08:43:59;21.00;;;12.43;;
29196;SDS011;62796;42.654;23.316;2023-07-24T08:46:25;23.27;;;12.23;;
29196;SDS011;62796;42.654;23.316;2023-07-24T08:48:52;21.88;;;12.73;;
29196;SDS011;62796;42.654;23.316;2023-07-24T08:51:19;23.90;;;13.13;;
29196;SDS011;62796;42.654;23.316;2023-07-24T08:53:46;19.95;;;12.13;;
29196;SDS011;62796;42.654;23.316;2023-07-24T08:56:13;18.13;;;12.43;;
29196;SDS011;62796;42.654;23.316;2023-07-24T08:58:39;18.70;;;12.65;;
29196;SDS011;62796;42.654;23.316;2023-07-24T09:01:05;22.92;;;13.73;;
29196;SDS011;62796;42.654;23.316;2023-07-24T09:03:30;19.90;;;12.07;;
29196;SDS011;62796;42.654;23.316;2023-07-24T09:05:57;19.23;;;13.48;;
29196;SDS011;62796;42.654;23.316;2023-07-24T09:08:36;20.42;;;12.98;;
29196;SDS011;62796;42.654;23.316;2023-07-24T09:11:03;20.40;;;13.30;;
29196;SDS011;62796;42.654;23.316;2023-07-24T09:13:30;21.15;;;12.50;;
29196;SDS011;62796;42.654;23.316;2023-07-24T09:15:56;22.13;;;12.70;;
29196;SDS011;62796;42.654;23.316;2023-07-24T09:18:22;24.10;;;12.68;;
29196;SDS011;62796;42.654;23.316;2023-07-24T09:20:48;16.48;;;11.85;;
29196;SDS011;62796;42.654;23.316;2023-07-24T09:23:14;21.73;;;12.90;;
29196;SDS011;62796;42.654;23.316;2023-07-24T09:25:41;17.70;;;12.43;;
29196;SDS011;62796;42.654;23.316;2023-07-24T09:28:15;19.80;;;13.57;;
29196;SDS011;62796;42.654;23.316;2023-07-24T09:30:42;22.38;;;12.48;;
29196;SDS011;62796;42.654;23.316;2023-07-24T09:33:16;22.35;;;13.10;;
29196;SDS011;62796;42.654;23.316;2023-07-24T09:35:41;19.15;;;12.07;;
29196;SDS011;62796;42.654;23.316;2023-07-24T09:38:08;19.17;;;11.93;;
29196;SDS011;62796;42.654;23.316;2023-07-24T09:40:38;21.70;;;12.15;;
29196;SDS011;62796;42.654;23.316;2023-07-24T09:43:13;20.75;;;12.13;;
29196;SDS011;62796;42.654;23.316;2023-07-24T09:45:42;17.83;;;11.52;;
29196;SDS011;62796;42.654;23.316;2023-07-24T09:48:09;19.80;;;12.05;;
29196;SDS011;62796;42.654;23.316;2023-07-24T09:50:38;20.60;;;11.88;;
29196;SDS011;62796;42.654;23.316;2023-07-24T09:53:04;21.17;;;12.13;;
29196;SDS011;62796;42.654;23.316;2023-07-24T09:55:33;21.75;;;12.45;;
29196;SDS011;62796;42.654;23.316;2023-07-24T09:58:03;17.48;;;11.75;;
29196;SDS011;62796;42.654;23.316;2023-07-24T10:00:31;22.45;;;12.23;;
29196;SDS011;62796;42.654;23.316;2023-07-24T10:02:57;22.60;;;12.77;;
29196;SDS011;62796;42.654;23.316;2023-07-24T10:05:23;20.48;;;12.40;;
29196;SDS011;62796;42.654;23.316;2023-07-24T10:07:49;24.55;;;12.68;;
29196;SDS011;62796;42.654;23.316;2023-07-24T10:10:16;21.20;;;11.85;;
29196;SDS011;62796;42.654;23.316;2023-07-24T10:12:42;24.75;;;13.05;;
29196;SDS011;62796;42.654;23.316;2023-07-24T10:15:08;23.65;;;13.52;;
29196;SDS011;62796;42.654;23.316;2023-07-24T10:17:39;25.48;;;12.13;;
29196;SDS011;62796;42.654;23.316;2023-07-24T10:20:07;19.90;;;12.90;;
29196;SDS011;62796;42.654;23.316;2023-07-24T10:22:35;26.67;;;12.82;;
29196;SDS011;62796;42.654;23.316;2023-07-24T10:25:02;23.70;;;12.80;;
29196;SDS011;62796;42.654;23.316;2023-07-24T10:27:28;21.33;;;12.00;;
29196;SDS011;62796;42.654;23.316;2023-07-24T10:30:03;18.13;;;10.48;;
29196;SDS011;62796;42.654;23.316;2023-07-24T10:32:30;23.48;;;11.93;;
29196;SDS011;62796;42.654;23.316;2023-07-24T10:34:59;20.25;;;10.30;;
29196;SDS011;62796;42.654;23.316;2023-07-24T10:37:35;17.13;;;9.27;;
29196;SDS011;62796;42.654;23.316;2023-07-24T10:40:02;17.83;;;9.85;;
29196;SDS011;62796;42.654;23.316;2023-07-24T10:42:30;24.08;;;11.48;;
29196;SDS011;62796;42.654;23.316;2023-07-24T10:45:05;19.63;;;10.00;;
29196;SDS011;62796;42.654;23.316;2023-07-24T10:47:32;21.85;;;9.35;;
29196;SDS011;62796;42.654;23.316;2023-07-24T10:49:58;20.65;;;9.50;;
29196;SDS011;62796;42.654;23.316;2023-07-24T10:52:30;22.27;;;9.15;;
29196;SDS011;62796;42.654;23.316;2023-07-24T10:54:59;18.05;;;8.27;;
29196;SDS011;62796;42.654;23.316;2023-07-24T10:57:29;22.83;;;9.35;;
29196;SDS011;62796;42.654;23.316;2023-07-24T10:59:54;16.40;;;8.43;;
29196;SDS011;62796;42.654;23.316;2023-07-24T11:02:20;21.92;;;8.48;;
29196;SDS011;62796;42.654;23.316;2023-07-24T11:04:46;17.35;;;8.38;;
29196;SDS011;62796;42.654;23.316;2023-07-24T11:07:11;22.20;;;9.40;;
29196;SDS011;62796;42.654;23.316;2023-07-24T11:09:38;24.65;;;8.70;;
29196;SDS011;62796;42.654;23.316;2023-07-24T11:12:11;18.25;;;9.20;;
29196;SDS011;62796;42.654;23.316;2023-07-24T11:17:19;17.88;;;9.05;;
29196;SDS011;62796;42.654;23.316;2023-07-24T11:19:44;14.98;;;9.00;;
29196;SDS011;62796;42.654;23.316;2023-07-24T11:22:10;16.98;;;8.73;;
29196;SDS011;62796;42.654;23.316;2023-07-24T11:24:42;14.00;;;8.38;;
29196;SDS011;62796;42.654;23.316;2023-07-24T11:27:15;20.05;;;8.52;;
29196;SDS011;62796;42.654;23.316;2023-07-24T11:29:42;18.83;;;8.98;;
29196;SDS011;62796;42.654;23.316;2023-07-24T11:32:12;16.58;;;9.05;;
29196;SDS011;62796;42.654;23.316;2023-07-24T11:34:37;21.80;;;9.45;;
29196;SDS011;62796;42.654;23.316;2023-07-24T11:37:03;17.10;;;9.15;;
29196;SDS011;62796;42.654;23.316;2023-07-24T11:39:30;15.88;;;8.88;;
29196;SDS011;62796;42.654;23.316;2023-07-24T11:41:56;20.05;;;8.98;;
29196;SDS011;62796;42.654;23.316;2023-07-24T11:44:24;18.10;;;8.20;;
29196;SDS011;62796;42.654;23.316;2023-07-24T11:47:05;18.25;;;8.63;;
29196;SDS011;62796;42.654;23.316;2023-07-24T11:49:31;20.52;;;9.52;;
29196;SDS011;62796;42.654;23.316;2023-07-24T11:52:03;17.13;;;8.77;;
29196;SDS011;62796;42.654;23.316;2023-07-24T11:54:30;19.52;;;9.43;;
29196;SDS011;62796;42.654;23.316;2023-07-24T11:56:55;15.95;;;8.40;;
29196;SDS011;62796;42.654;23.316;2023-07-24T11:59:21;18.65;;;8.95;;
29196;SDS011;62796;42.654;23.316;2023-07-24T12:01:47;21.17;;;9.82;;
29196;SDS011;62796;42.654;23.316;2023-07-24T12:04:16;13.95;;;8.65;;
29196;SDS011;62796;42.654;23.316;2023-07-24T12:06:42;17.55;;;9.38;;
29196;SDS011;62796;42.654;23.316;2023-07-24T12:09:08;16.30;;;8.98;;
29196;SDS011;62796;42.654;23.316;2023-07-24T12:11:42;18.90;;;9.02;;
29196;SDS011;62796;42.654;23.316;2023-07-24T12:16:34;33.23;;;10.33;;
29196;SDS011;62796;42.654;23.316;2023-07-24T12:19:00;38.08;;;10.50;;
29196;SDS011;62796;42.654;23.316;2023-07-24T12:21:25;18.60;;;9.57;;
29196;SDS011;62796;42.654;23.316;2023-07-24T12:23:51;17.25;;;9.23;;
29196;SDS011;62796;42.654;23.316;2023-07-24T12:26:16;17.90;;;9.35;;
29196;SDS011;62796;42.654;23.316;2023-07-24T12:28:42;15.32;;;9.05;;
29196;SDS011;62796;42.654;23.316;2023-07-24T12:31:07;19.85;;;9.68;;
29196;SDS011;62796;42.654;23.316;2023-07-24T12:33:33;20.63;;;9.35;;
29196;SDS011;62796;42.654;23.316;2023-07-24T12:35:58;23.98;;;9.52;;
29196;SDS011;62796;42.654;23.316;2023-07-24T12:38:24;19.35;;;9.13;;
29196;SDS011;62796;42.654;23.316;2023-07-24T12:40:49;18.08;;;9.05;;
29196;SDS011;62796;42.654;23.316;2023-07-24T12:43:15;18.20;;;9.23;;
29196;SDS011;62796;42.654;23.316;2023-07-24T12:45:40;16.63;;;9.25;;
29196;SDS011;62796;42.654;23.316;2023-07-24T12:48:06;16.20;;;9.55;;
29196;SDS011;62796;42.654;23.316;2023-07-24T12:50:32;15.30;;;8.93;;
29196;SDS011;62796;42.654;23.316;2023-07-24T12:52:58;20.10;;;9.50;;
29196;SDS011;62796;42.654;23.316;2023-07-24T12:55:24;17.00;;;9.40;;
29196;SDS011;62796;42.654;23.316;2023-07-24T12:57:49;16.27;;;8.90;;
29196;SDS011;62796;42.654;23.316;2023-07-24T13:00:14;17.13;;;9.13;;
29196;SDS011;62796;42.654;23.316;2023-07-24T13:02:40;14.13;;;9.32;;
29196;SDS011;62796;42.654;23.316;2023-07-24T13:05:05;17.85;;;9.25;;
29196;SDS011;62796;42.654;23.316;2023-07-24T13:07:31;19.58;;;9.30;;
29196;SDS011;62796;42.654;23.316;2023-07-24T13:09:56;18.75;;;9.20;;
29196;SDS011;62796;42.654;23.316;2023-07-24T13:12:22;15.23;;;9.18;;
29196;SDS011;62796;42.654;23.316;2023-07-24T13:14:47;20.00;;;10.00;;
29196;SDS011;62796;42.654;23.316;2023-07-24T13:17:13;14.57;;;9.90;;
29196;SDS011;62796;42.654;23.316;2023-07-24T13:19:38;17.10;;;10.15;;
29196;SDS011;62796;42.654;23.316;2023-07-24T13:22:04;18.48;;;10.45;;
29196;SDS011;62796;42.654;23.316;2023-07-24T13:24:29;16.95;;;9.77;;
29196;SDS011;62796;42.654;23.316;2023-07-24T13:26:55;17.92;;;9.82;;
29196;SDS011;62796;42.654;23.316;2023-07-24T13:29:20;13.77;;;9.35;;
29196;SDS011;62796;42.654;23.316;2023-07-24T13:31:46;19.83;;;9.90;;
29196;SDS011;62796;42.654;23.316;2023-07-24T13:34:11;15.50;;;9.65;;
29196;SDS011;62796;42.654;23.316;2023-07-24T13:36:36;15.50;;;9.35;;
29196;SDS011;62796;42.654;23.316;2023-07-24T13:39:02;23.05;;;10.38;;
29196;SDS011;62796;42.654;23.316;2023-07-24T13:41:27;15.15;;;9.77;;
29196;SDS011;62796;42.654;23.316;2023-07-24T13:43:53;13.55;;;9.90;;
29196;SDS011;62796;42.654;23.316;2023-07-24T13:46:18;17.45;;;9.38;;
29196;SDS011;62796;42.654;23.316;2023-07-24T13:48:44;15.23;;;10.05;;
29196;SDS011;62796;42.654;23.316;2023-07-24T13:51:09;15.77;;;10.20;;
29196;SDS011;62796;42.654;23.316;2023-07-24T13:53:35;18.58;;;10.15;;
29196;SDS011;62796;42.654;23.316;2023-07-24T13:56:01;13.68;;;9.60;;
29196;SDS011;62796;42.654;23.316;2023-07-24T13:58:27;17.05;;;9.68;;
29196;SDS011;62796;42.654;23.316;2023-07-24T14:00:53;17.23;;;9.95;;
29196;SDS011;62796;42.654;23.316;2023-07-24T14:03:18;16.90;;;10.38;;
29196;SDS011;62796;42.654;23.316;2023-07-24T14:05:44;15.77;;;10.23;;
29196;SDS011;62796;42.654;23.316;2023-07-24T14:08:09;25.75;;;10.25;;
29196;SDS011;62796;42.654;23.316;2023-07-24T14:10:35;22.50;;;9.65;;